Time;durP1;ratioP1;P1;durP2;ratioP2;P2;SDS_P1;SDS_P2;PMS_P1;PMS_P2;Temp;Humidity;BMP_temperature;BMP_pressure;BME280_temperature;BME280_humidity;BME280_pressure;Samples;Min_cycle;Max_cycle;Signal;HPM_P1;HPM_P2
2023/01/31 00:01:17;;;;;;;33.87;4.73;;;3.70;99.90;;;;;;4999970;28;20452;-71
2023/01/31 00:03:43;;;;;;;49.53;5.20;;;3.70;99.90;;;;;;5011904;28;20485;-70
2023/01/31 00:06:20;;;;;;;32.93;4.70;;;3.70;99.90;;;;;;5005365;28;21354;-70
2023/01/31 00:08:48;;;;;;;33.67;5.37;;;3.60;99.90;;;;;;5012755;28;20422;-70
2023/01/31 00:11:15;;;;;;;31.80;5.30;;;3.60;99.90;;;;;;5011468;28;20463;-72
2023/01/31 00:13:43;;;;;;;30.60;4.90;;;3.50;99.90;;;;;;5012301;28;20919;-71
2023/01/31 00:16:10;;;;;;;40.00;5.53;;;3.50;99.90;;;;;;5012426;28;20475;-71
2023/01/31 00:18:37;;;;;;;30.40;5.00;;;3.40;99.90;;;;;;5012440;28;20808;-71
2023/01/31 00:21:17;;;;;;;37.83;5.37;;;3.30;99.90;;;;;;5012459;28;20439;-71
2023/01/31 00:23:44;;;;;;;31.70;5.00;;;3.20;99.90;;;;;;5012581;28;20832;-69
2023/01/31 00:26:22;;;;;;;44.40;4.90;;;3.20;99.90;;;;;;5016366;28;20424;-70
2023/01/31 00:28:48;;;;;;;30.70;4.77;;;3.10;99.90;;;;;;5015547;28;20414;-70
2023/01/31 00:31:15;;;;;;;30.30;4.80;;;3.10;99.90;;;;;;5011890;28;20466;-71
2023/01/31 00:33:43;;;;;;;32.57;4.60;;;3.00;99.90;;;;;;5011658;28;20433;-71
2023/01/31 00:36:13;;;;;;;28.50;4.60;;;3.00;99.90;;;;;;5012553;28;20453;-71
2023/01/31 00:38:41;;;;;;;26.40;4.03;;;3.00;99.90;;;;;;5012463;28;20433;-71
2023/01/31 00:41:06;;;;;;;30.63;4.97;;;3.00;99.90;;;;;;4994564;28;20451;-71
2023/01/31 00:43:32;;;;;;;26.90;4.57;;;3.00;99.90;;;;;;5012239;28;20468;-71
2023/01/31 00:45:58;;;;;;;40.60;4.70;;;3.00;99.90;;;;;;5012144;28;20181;-70
2023/01/31 00:48:24;;;;;;;30.90;4.50;;;3.00;99.90;;;;;;5012433;28;20431;-71
2023/01/31 00:50:50;;;;;;;28.87;4.10;;;3.00;99.90;;;;;;5012228;28;20209;-70
2023/01/31 00:53:17;;;;;;;28.03;4.20;;;2.90;99.90;;;;;;5012022;28;20430;-71
2023/01/31 00:55:43;;;;;;;34.60;3.73;;;2.90;99.90;;;;;;5010685;28;20187;-71
2023/01/31 00:58:08;;;;;;;45.17;4.70;;;3.00;99.90;;;;;;5012127;28;20924;-71
2023/01/31 01:00:34;;;;;;;30.97;3.33;;;2.90;99.90;;;;;;5012126;28;20431;-70
2023/01/31 01:02:59;;;;;;;29.93;4.80;;;3.00;99.90;;;;;;5011946;28;20222;-71
2023/01/31 01:05:25;;;;;;;29.20;4.60;;;3.00;99.90;;;;;;5011694;28;20193;-71
2023/01/31 01:07:50;;;;;;;23.70;3.63;;;3.00;99.90;;;;;;5011846;28;20184;-71
2023/01/31 01:10:16;;;;;;;28.03;4.43;;;3.00;99.90;;;;;;5012442;28;20267;-71
2023/01/31 01:12:42;;;;;;;25.77;3.40;;;2.90;99.90;;;;;;5012146;28;20211;-71
2023/01/31 01:15:07;;;;;;;30.40;3.13;;;2.90;99.90;;;;;;5011784;28;20199;-71
2023/01/31 01:17:33;;;;;;;30.03;3.43;;;2.90;99.90;;;;;;5011975;28;20191;-71
2023/01/31 01:20:02;;;;;;;29.50;3.70;;;2.90;99.90;;;;;;5011760;28;20431;-71
2023/01/31 01:22:32;;;;;;;40.30;4.20;;;2.90;99.90;;;;;;5011726;28;20216;-71
2023/01/31 01:24:57;;;;;;;33.40;4.37;;;2.90;99.90;;;;;;5010181;28;20920;-71
2023/01/31 01:27:23;;;;;;;29.50;3.40;;;2.90;99.90;;;;;;4994284;28;20461;-71
2023/01/31 01:29:49;;;;;;;31.17;3.80;;;2.90;99.90;;;;;;5011845;28;20188;-71
2023/01/31 01:32:14;;;;;;;30.80;4.30;;;2.80;99.90;;;;;;5011754;28;20662;-70
2023/01/31 01:34:40;;;;;;;30.00;4.13;;;2.90;99.90;;;;;;5011586;28;20193;-71
2023/01/31 01:37:18;;;;;;;27.60;3.93;;;2.80;99.90;;;;;;5011737;28;20282;-71
2023/01/31 01:39:51;;;;;;;36.20;3.80;;;2.80;99.90;;;;;;5011863;28;20193;-71
2023/01/31 01:42:19;;;;;;;31.60;4.00;;;2.80;99.90;;;;;;5011758;28;20511;-71
2023/01/31 01:44:56;;;;;;;35.20;4.00;;;2.80;99.90;;;;;;5011440;28;20398;-71
2023/01/31 01:47:29;;;;;;;26.70;3.70;;;2.80;99.90;;;;;;5011647;28;20436;-71
2023/01/31 01:50:42;;;;;;;29.77;3.20;;;2.80;99.90;;;;;;5011872;28;20478;-70
2023/01/31 01:53:12;;;;;;;37.03;5.00;;;2.70;99.90;;;;;;4896346;29;20428;-71
2023/01/31 01:55:44;;;;;;;28.43;4.37;;;2.70;99.90;;;;;;4993848;28;20466;-71
2023/01/31 01:58:22;;;;;;;38.87;4.63;;;2.60;99.90;;;;;;5011516;28;21150;-71
2023/01/31 03:31:27;;;;;;;38.53;4.87;;;2.70;99.90;;;;;;5622321;22;20532;-71
2023/01/31 03:34:00;;;;;;;30.33;5.80;;;2.70;99.90;;;;;;5011461;28;20436;-71
2023/01/31 03:36:29;;;;;;;71.47;5.90;;;2.80;99.90;;;;;;5005598;28;20442;-72
2023/01/31 03:39:28;;;;;;;44.87;10.47;;;2.80;99.90;;;;;;5012919;28;20475;-72
2023/01/31 03:42:06;;;;;;;61.47;5.70;;;2.80;99.90;;;;;;5009236;28;20945;-72
2023/01/31 03:44:38;;;;;;;33.90;5.30;;;2.70;99.90;;;;;;4988627;28;20448;-72
2023/01/31 03:47:12;;;;;;;34.17;5.50;;;2.70;99.90;;;;;;5013441;28;20428;-71
2023/01/31 03:49:41;;;;;;;28.07;5.00;;;2.70;99.90;;;;;;5013545;28;20478;-70
2023/01/31 03:52:09;;;;;;;27.27;4.77;;;2.70;99.90;;;;;;5012945;28;20436;-71
2023/01/31 03:54:44;;;;;;;31.60;4.27;;;2.70;99.90;;;;;;5012965;28;20432;-71
2023/01/31 03:57:24;;;;;;;32.50;5.20;;;2.70;99.90;;;;;;5012709;28;20423;-72
2023/01/31 03:59:56;;;;;;;30.00;5.00;;;2.70;99.90;;;;;;5004738;28;20437;-71
2023/01/31 04:02:33;;;;;;;30.13;4.60;;;2.60;99.90;;;;;;4993818;28;20889;-72
2023/01/31 04:05:07;;;;;;;27.80;4.67;;;2.50;99.90;;;;;;5009458;28;20429;-72
2023/01/31 04:07:33;;;;;;;28.50;4.93;;;2.50;99.90;;;;;;5006226;28;20838;-71
2023/01/31 04:09:59;;;;;;;33.57;5.33;;;2.50;99.90;;;;;;5012522;28;20866;-69
2023/01/31 04:12:25;;;;;;;32.80;4.60;;;2.40;99.90;;;;;;5012712;28;20554;-70
2023/01/31 04:14:50;;;;;;;34.50;5.20;;;2.40;99.90;;;;;;4994895;28;20192;-71
2023/01/31 04:17:16;;;;;;;30.70;4.60;;;2.30;99.90;;;;;;5012745;28;20192;-71
2023/01/31 04:19:41;;;;;;;32.33;5.50;;;2.20;99.90;;;;;;5012980;28;20209;-71
2023/01/31 04:22:07;;;;;;;31.00;5.00;;;2.20;99.90;;;;;;5019521;28;20222;-71
2023/01/31 04:24:33;;;;;;;67.00;5.60;;;2.10;99.90;;;;;;4992761;28;20235;-70
2023/01/31 04:26:58;;;;;;;80.10;6.50;;;2.10;99.90;;;;;;4993007;28;20190;-71
2023/01/31 04:29:24;;;;;;;54.67;5.10;;;2.00;99.90;;;;;;5012245;28;20915;-70
2023/01/31 04:31:49;;;;;;;52.97;5.77;;;1.90;99.90;;;;;;5012347;28;20219;-71
2023/01/31 04:34:15;;;;;;;39.03;5.20;;;1.80;99.90;;;;;;4994629;28;20198;-71
2023/01/31 04:36:40;;;;;;;60.43;4.70;;;1.70;99.90;;;;;;5012753;28;20195;-71
2023/01/31 04:39:06;;;;;;;32.50;4.23;;;1.50;99.90;;;;;;5012523;28;20309;-71
2023/01/31 04:41:31;;;;;;;28.20;5.10;;;1.50;99.90;;;;;;5012348;28;20238;-71
2023/01/31 04:43:57;;;;;;;30.27;4.93;;;1.40;99.90;;;;;;5012325;28;20240;-71
2023/01/31 04:46:22;;;;;;;33.77;4.60;;;1.30;99.90;;;;;;5012359;28;20657;-71
2023/01/31 04:48:48;;;;;;;26.57;5.20;;;1.20;99.90;;;;;;5011180;28;20190;-70
2023/01/31 04:51:14;;;;;;;30.80;4.23;;;1.20;99.90;;;;;;5012067;28;20219;-72
2023/01/31 04:53:41;;;;;;;26.77;4.50;;;1.10;99.90;;;;;;5012503;28;20191;-71
2023/01/31 04:56:07;;;;;;;28.67;4.43;;;1.10;99.90;;;;;;5011603;28;20664;-72
2023/01/31 04:58:32;;;;;;;29.20;6.00;;;1.10;99.90;;;;;;5012185;28;20438;-71
2023/01/31 05:00:58;;;;;;;30.13;5.40;;;1.10;99.90;;;;;;5011870;28;20214;-71
2023/01/31 05:03:23;;;;;;;28.30;5.40;;;1.20;99.90;;;;;;5011405;28;20214;-71
2023/01/31 05:05:49;;;;;;;65.13;5.50;;;1.20;99.90;;;;;;5011956;28;20194;-71
2023/01/31 05:08:16;;;;;;;46.13;5.10;;;1.20;99.90;;;;;;5011674;28;20301;-71
2023/01/31 05:10:41;;;;;;;36.27;6.03;;;1.20;99.90;;;;;;5012142;28;20447;-71
2023/01/31 05:13:07;;;;;;;28.27;4.70;;;1.20;99.90;;;;;;5011582;28;20872;-70
2023/01/31 05:15:33;;;;;;;34.97;6.80;;;1.30;99.90;;;;;;5012011;28;20630;-71
2023/01/31 05:18:02;;;;;;;23.07;4.20;;;1.30;99.90;;;;;;5004552;28;20620;-71
2023/01/31 05:20:38;;;;;;;25.90;5.57;;;1.30;99.90;;;;;;5012062;28;20219;-71
2023/01/31 05:23:04;;;;;;;56.17;13.37;;;1.30;99.90;;;;;;5011456;28;20472;-69
2023/01/31 05:25:30;;;;;;;31.67;5.00;;;1.30;99.90;;;;;;4999801;28;20443;-71
2023/01/31 05:27:56;;;;;;;27.57;4.40;;;1.30;99.90;;;;;;4990600;28;20427;-71
2023/01/31 05:30:23;;;;;;;29.07;6.03;;;1.30;99.90;;;;;;4989996;28;20184;-71
2023/01/31 05:32:49;;;;;;;25.23;4.70;;;1.20;99.90;;;;;;4991700;28;20428;-71
2023/01/31 05:35:15;;;;;;;22.70;4.80;;;1.20;99.90;;;;;;4991273;28;20463;-71
2023/01/31 05:37:41;;;;;;;24.70;6.00;;;1.10;99.90;;;;;;4991627;28;20486;-71
2023/01/31 05:40:12;;;;;;;57.90;6.13;;;1.00;99.90;;;;;;4991923;28;20435;-70
2023/01/31 05:42:37;;;;;;;34.70;6.60;;;0.90;99.90;;;;;;4991143;28;20475;-71
2023/01/31 05:45:04;;;;;;;27.30;5.60;;;0.80;99.90;;;;;;4991651;28;20434;-71
2023/01/31 05:47:29;;;;;;;27.77;6.30;;;0.70;99.90;;;;;;5002772;28;20297;-71
2023/01/31 05:49:55;;;;;;;22.20;5.03;;;0.60;99.90;;;;;;5011500;28;20467;-70
2023/01/31 05:52:20;;;;;;;22.27;4.43;;;0.50;99.90;;;;;;4994335;28;20214;-70
2023/01/31 05:54:46;;;;;;;21.43;4.97;;;0.50;99.90;;;;;;5015333;28;20280;-71
2023/01/31 05:57:13;;;;;;;28.80;6.10;;;0.40;99.90;;;;;;5015363;28;20194;-70
2023/01/31 05:59:38;;;;;;;36.23;5.83;;;0.30;99.90;;;;;;5015316;28;20667;-71
2023/01/31 06:02:04;;;;;;;35.70;5.77;;;0.30;99.90;;;;;;5015132;28;20549;-71
2023/01/31 06:04:29;;;;;;;24.23;4.97;;;0.20;99.90;;;;;;5014949;28;20191;-70
2023/01/31 06:06:55;;;;;;;30.63;7.00;;;0.20;99.90;;;;;;5015330;28;20197;-71
2023/01/31 06:09:20;;;;;;;33.00;8.50;;;0.10;99.90;;;;;;4997833;28;20286;-70
2023/01/31 06:11:46;;;;;;;30.43;6.10;;;0.10;99.90;;;;;;5011148;28;20209;-71
2023/01/31 06:14:11;;;;;;;28.43;6.20;;;0.20;99.90;;;;;;4995526;28;20275;-70
2023/01/31 06:16:37;;;;;;;25.00;4.97;;;0.20;99.90;;;;;;4995797;28;20219;-70
2023/01/31 06:19:03;;;;;;;32.97;6.20;;;0.40;99.90;;;;;;4995547;28;20192;-70
2023/01/31 06:21:28;;;;;;;22.80;5.80;;;0.40;99.90;;;;;;5014971;28;20217;-70
2023/01/31 06:23:54;;;;;;;23.07;5.73;;;0.50;99.90;;;;;;5014774;28;20552;-71
2023/01/31 06:26:19;;;;;;;24.97;4.87;;;0.50;99.90;;;;;;5015424;28;20196;-71
2023/01/31 06:28:45;;;;;;;24.87;5.30;;;0.60;99.90;;;;;;5015132;28;20186;-71
2023/01/31 06:31:11;;;;;;;25.03;5.40;;;0.60;99.90;;;;;;5004464;28;20284;-70
2023/01/31 06:33:37;;;;;;;37.13;5.87;;;0.70;99.90;;;;;;5012810;28;20202;-70
2023/01/31 06:36:03;;;;;;;71.67;6.53;;;0.80;99.90;;;;;;5006738;28;20460;-70
2023/01/31 06:38:29;;;;;;;39.03;5.07;;;0.70;99.90;;;;;;4994621;28;20250;-71
2023/01/31 06:40:55;;;;;;;25.90;6.00;;;0.60;99.90;;;;;;4996763;28;20440;-71
2023/01/31 06:43:21;;;;;;;26.73;5.27;;;0.50;99.90;;;;;;4995118;28;20568;-71
2023/01/31 06:45:50;;;;;;;32.77;6.40;;;0.40;99.90;;;;;;5008314;28;20193;-71
2023/01/31 06:48:16;;;;;;;29.60;6.13;;;0.40;99.90;;;;;;5009158;28;20431;-70
2023/01/31 06:50:43;;;;;;;32.13;5.40;;;0.30;99.90;;;;;;4977090;28;20448;-69
2023/01/31 06:53:08;;;;;;;36.43;8.63;;;0.20;99.90;;;;;;4994177;28;20664;-70
2023/01/31 06:55:34;;;;;;;35.40;6.70;;;0.20;99.90;;;;;;5002684;28;20427;-70
2023/01/31 06:57:59;;;;;;;35.60;6.03;;;0.20;99.90;;;;;;4994509;28;20196;-70
2023/01/31 07:00:25;;;;;;;34.20;4.87;;;0.20;99.90;;;;;;5012666;28;20251;-69
2023/01/31 07:02:52;;;;;;;40.43;5.80;;;0.40;99.90;;;;;;5013525;28;20325;-70
2023/01/31 07:05:18;;;;;;;31.80;5.17;;;0.50;99.90;;;;;;5012682;28;20187;-71
2023/01/31 07:07:44;;;;;;;29.37;5.20;;;0.60;99.90;;;;;;5013667;28;20425;-71
2023/01/31 07:10:10;;;;;;;29.50;5.10;;;0.80;99.90;;;;;;5013294;28;20424;-70
2023/01/31 07:12:36;;;;;;;36.80;4.50;;;0.90;99.90;;;;;;4994561;28;20203;-70
2023/01/31 07:15:02;;;;;;;30.90;7.30;;;1.00;99.90;;;;;;4993878;28;20945;-70
2023/01/31 07:17:27;;;;;;;33.17;5.53;;;1.10;99.90;;;;;;5013011;28;20191;-70
2023/01/31 07:19:53;;;;;;;37.13;5.70;;;1.20;99.90;;;;;;5008701;28;20188;-71
2023/01/31 07:22:18;;;;;;;30.03;5.03;;;1.30;99.90;;;;;;4994676;28;20231;-70
2023/01/31 07:24:44;;;;;;;40.33;4.90;;;1.30;99.90;;;;;;4994000;28;20272;-71
2023/01/31 07:27:12;;;;;;;34.23;5.70;;;1.40;99.90;;;;;;4993698;28;20195;-70
2023/01/31 07:29:38;;;;;;;31.83;5.03;;;1.40;99.90;;;;;;5005853;28;20310;-71
2023/01/31 07:32:04;;;;;;;33.33;5.37;;;1.30;99.90;;;;;;5013273;28;20434;-71
2023/01/31 07:34:30;;;;;;;28.20;4.23;;;1.30;99.90;;;;;;5002031;28;20274;-71
2023/01/31 07:36:55;;;;;;;31.30;4.50;;;1.40;99.90;;;;;;4993661;28;20519;-71
2023/01/31 07:39:21;;;;;;;30.97;4.57;;;1.40;99.90;;;;;;4992730;28;20571;-71
2023/01/31 07:41:46;;;;;;;29.93;4.90;;;1.60;99.90;;;;;;4993901;28;20254;-71
2023/01/31 07:44:12;;;;;;;36.33;5.30;;;1.70;99.90;;;;;;4993190;28;20218;-69
2023/01/31 07:46:38;;;;;;;32.80;4.10;;;1.80;99.90;;;;;;4994062;28;20196;-71
2023/01/31 07:49:04;;;;;;;35.67;5.13;;;2.00;99.90;;;;;;4993692;28;20251;-71
2023/01/31 07:51:29;;;;;;;40.27;4.60;;;2.20;99.90;;;;;;4993905;28;20698;-71
2023/01/31 07:53:55;;;;;;;34.93;4.23;;;2.40;99.90;;;;;;4993458;28;20244;-71
2023/01/31 07:56:21;;;;;;;31.83;3.73;;;2.60;99.90;;;;;;5010789;28;20196;-70
2023/01/31 07:58:48;;;;;;;34.40;4.50;;;2.80;99.90;;;;;;5013193;28;20610;-71
2023/01/31 08:04:02;;;;;;;52.83;4.23;;;3.30;99.90;;;;;;5007872;28;20501;-71
2023/01/31 08:06:29;;;;;;;38.07;4.40;;;3.50;99.90;;;;;;5012974;28;20436;-71
2023/01/31 08:08:55;;;;;;;39.17;5.00;;;3.50;99.90;;;;;;5013192;28;20607;-70
2023/01/31 08:11:21;;;;;;;30.67;3.50;;;3.70;99.90;;;;;;5012637;28;20538;-71
2023/01/31 08:13:46;;;;;;;49.07;4.93;;;3.90;99.90;;;;;;4995092;28;20475;-69
2023/01/31 08:16:12;;;;;;;56.43;4.93;;;4.00;99.90;;;;;;5012375;28;20197;-70
2023/01/31 08:18:38;;;;;;;42.93;3.70;;;4.10;99.90;;;;;;5012726;28;20189;-71
2023/01/31 08:21:05;;;;;;;55.00;5.27;;;4.30;99.90;;;;;;5012931;28;20276;-71
2023/01/31 08:23:31;;;;;;;53.40;4.33;;;4.40;99.90;;;;;;5012314;28;20510;-71
2023/01/31 08:26:05;;;;;;;44.20;4.00;;;4.60;99.90;;;;;;5012407;28;21011;-70
2023/01/31 08:28:31;;;;;;;35.27;3.50;;;4.80;99.90;;;;;;5012964;28;20552;-70
2023/01/31 08:30:57;;;;;;;39.13;3.30;;;4.80;99.90;;;;;;5012358;28;20456;-71
2023/01/31 08:33:23;;;;;;;56.50;3.67;;;4.80;99.90;;;;;;5012189;28;20434;-70
2023/01/31 08:35:49;;;;;;;49.70;3.17;;;4.80;99.90;;;;;;5012733;28;20271;-71
2023/01/31 08:38:14;;;;;;;58.53;4.17;;;4.70;99.90;;;;;;5012360;28;20525;-72
2023/01/31 08:40:40;;;;;;;67.53;3.90;;;4.70;99.90;;;;;;5009514;28;20213;-70
2023/01/31 08:43:05;;;;;;;63.27;3.57;;;4.70;99.90;;;;;;4992516;28;20219;-71
2023/01/31 08:45:31;;;;;;;75.53;5.03;;;4.70;99.90;;;;;;4994885;28;20198;-72
2023/01/31 08:47:59;;;;;;;64.90;4.17;;;4.60;99.90;;;;;;5012317;28;20264;-70
2023/01/31 08:50:27;;;;;;;63.57;3.80;;;4.60;99.90;;;;;;5012075;28;20436;-71
2023/01/31 08:52:54;;;;;;;85.27;8.00;;;4.50;99.90;;;;;;5012709;28;20442;-71
2023/01/31 08:55:20;;;;;;;72.20;4.83;;;4.50;99.90;;;;;;5012237;28;20464;-70
2023/01/31 08:57:46;;;;;;;51.20;3.60;;;4.50;99.90;;;;;;5012374;28;20798;-71
2023/01/31 09:00:12;;;;;;;54.97;3.87;;;4.50;99.90;;;;;;5012100;28;20433;-71
2023/01/31 09:02:37;;;;;;;46.03;3.23;;;4.60;99.90;;;;;;5011944;28;20221;-71
2023/01/31 09:05:03;;;;;;;50.20;4.00;;;4.60;99.90;;;;;;5011483;28;20706;-70
2023/01/31 09:07:28;;;;;;;42.77;3.10;;;4.70;99.90;;;;;;5011862;28;20553;-71
2023/01/31 09:09:54;;;;;;;57.10;3.60;;;4.80;99.90;;;;;;5011786;28;20564;-70
2023/01/31 09:12:19;;;;;;;41.13;3.00;;;4.80;99.90;;;;;;5011087;28;20211;-69
2023/01/31 09:14:45;;;;;;;47.77;4.17;;;4.70;99.90;;;;;;4991905;28;20646;-71
2023/01/31 09:17:10;;;;;;;50.03;4.37;;;4.80;99.90;;;;;;4991998;28;20282;-70
2023/01/31 09:19:37;;;;;;;37.50;3.70;;;4.90;99.90;;;;;;4991916;28;20320;-71
2023/01/31 09:22:03;;;;;;;35.57;3.20;;;5.10;99.90;;;;;;4991737;28;20205;-71
2023/01/31 09:24:28;;;;;;;49.13;3.70;;;5.30;99.90;;;;;;5002396;28;20438;-71
2023/01/31 09:26:55;;;;;;;57.57;4.30;;;5.50;99.90;;;;;;5010994;28;20271;-71
2023/01/31 09:29:20;;;;;;;24.53;4.40;;;5.50;99.90;;;;;;5011280;28;20249;-71
2023/01/31 09:31:50;;;;;;;43.67;3.83;;;5.50;99.90;;;;;;5011339;28;20466;-70
2023/01/31 09:34:16;;;;;;;40.63;3.60;;;5.50;99.90;;;;;;5011231;28;20187;-71
2023/01/31 09:36:41;;;;;;;44.93;4.23;;;5.50;99.90;;;;;;5011729;28;20517;-71
2023/01/31 09:39:07;;;;;;;44.77;3.83;;;5.60;99.90;;;;;;5011536;28;20196;-71
2023/01/31 09:41:35;;;;;;;39.50;3.30;;;5.60;99.90;;;;;;4983909;28;20655;-71
2023/01/31 09:44:12;;;;;;;48.90;4.57;;;5.80;99.90;;;;;;5005230;28;20211;-70
2023/01/31 09:46:45;;;;;;;47.57;4.47;;;5.80;99.90;;;;;;5011403;28;20782;-71
2023/01/31 09:49:18;;;;;;;43.03;4.33;;;5.80;99.90;;;;;;5011230;28;20805;-71
2023/01/31 09:51:48;;;;;;;42.53;4.40;;;5.70;99.90;;;;;;5011490;28;20820;-71
2023/01/31 09:54:22;;;;;;;44.67;3.73;;;5.60;99.90;;;;;;4995351;28;20446;-71
2023/01/31 09:56:59;;;;;;;41.90;3.53;;;5.60;99.90;;;;;;5003775;28;20493;-71
2023/01/31 09:59:40;;;;;;;43.97;3.73;;;5.60;99.90;;;;;;5002519;28;20446;-71
2023/01/31 10:02:54;;;;;;;41.73;4.03;;;5.60;99.90;;;;;;5005795;28;20502;-71
2023/01/31 10:05:46;;;;;;;47.37;3.70;;;5.60;99.90;;;;;;4982076;28;20433;-70
2023/01/31 10:08:23;;;;;;;58.50;5.37;;;5.70;99.90;;;;;;4983389;28;20454;-71
2023/01/31 10:10:51;;;;;;;55.57;4.20;;;5.70;99.90;;;;;;5011282;28;20439;-70
2023/01/31 10:13:23;;;;;;;65.17;5.10;;;5.60;99.90;;;;;;5010977;28;21199;-71
2023/01/31 10:15:55;;;;;;;77.70;6.80;;;5.60;99.90;;;;;;5011141;28;20462;-71
2023/01/31 10:18:33;;;;;;;79.10;7.40;;;5.50;99.90;;;;;;5010422;28;20538;-71
2023/01/31 10:21:05;;;;;;;46.07;4.83;;;5.40;99.90;;;;;;5004724;28;20542;-71
2023/01/31 10:23:34;;;;;;;52.53;5.13;;;5.30;99.90;;;;;;5010740;28;20468;-70
2023/01/31 10:26:05;;;;;;;48.30;4.80;;;5.20;99.90;;;;;;5011119;28;20429;-71
2023/01/31 10:28:57;;;;;;;34.87;4.50;;;5.20;99.90;;;;;;4994383;28;20419;-71
2023/01/31 10:31:44;;;;;;;72.20;5.97;;;5.10;99.90;;;;;;4999458;28;20556;-69
2023/01/31 10:34:25;;;;;;;44.27;3.80;;;5.20;99.90;;;;;;4995764;28;20837;-71
2023/01/31 10:37:20;;;;;;;41.47;3.53;;;5.40;99.90;;;;;;5007767;28;20850;-70
2023/01/31 10:39:59;;;;;;;41.13;3.67;;;5.80;99.90;;;;;;5013546;28;20418;-70
2023/01/31 10:42:38;;;;;;;45.73;3.03;;;5.90;99.90;;;;;;5014222;28;20476;-69
2023/01/31 10:45:07;;;;;;;39.77;3.43;;;5.90;99.90;;;;;;5013970;28;20430;-70
2023/01/31 10:47:34;;;;;;;37.37;3.47;;;6.00;99.90;;;;;;5014274;28;20421;-70
2023/01/31 10:50:04;;;;;;;37.90;2.93;;;6.00;99.90;;;;;;5014316;28;20427;-70
2023/01/31 10:52:51;;;;;;;51.53;3.60;;;6.00;99.90;;;;;;5014118;28;20454;-70
2023/01/31 10:55:41;;;;;;;40.97;2.60;;;6.00;99.90;;;;;;5014124;28;20442;-71
2023/01/31 10:58:16;;;;;;;44.83;4.00;;;6.10;99.90;;;;;;5008568;28;20421;-70
2023/01/31 11:00:42;;;;;;;42.43;3.50;;;6.30;99.90;;;;;;5014154;28;20446;-70
2023/01/31 11:03:11;;;;;;;39.30;3.60;;;6.20;99.90;;;;;;5013868;28;20467;-71
2023/01/31 11:05:48;;;;;;;44.33;3.87;;;6.20;99.90;;;;;;5013959;28;20464;-71
2023/01/31 11:08:33;;;;;;;47.97;3.87;;;6.30;99.90;;;;;;5013968;28;20431;-70
2023/01/31 11:11:06;;;;;;;49.47;8.10;;;6.30;99.90;;;;;;5007462;28;20456;-72
2023/01/31 11:13:32;;;;;;;47.10;5.13;;;6.20;99.90;;;;;;4997199;28;20540;-72
2023/01/31 11:15:57;;;;;;;40.30;3.90;;;6.10;99.90;;;;;;5007244;28;20488;-71
2023/01/31 11:18:34;;;;;;;53.20;4.83;;;6.00;99.90;;;;;;5013962;28;20208;-71
2023/01/31 11:21:01;;;;;;;48.00;3.33;;;5.90;99.90;;;;;;4989894;28;20465;-71
2023/01/31 11:23:30;;;;;;;40.57;4.20;;;5.90;99.90;;;;;;5014320;28;20471;-69
2023/01/31 11:25:56;;;;;;;43.27;3.70;;;6.00;99.90;;;;;;5013835;28;20946;-70
2023/01/31 11:28:38;;;;;;;43.30;3.47;;;6.10;99.90;;;;;;5013656;28;20532;-71
2023/01/31 11:31:07;;;;;;;45.47;3.63;;;6.10;99.90;;;;;;5007104;28;21050;-71
2023/01/31 11:33:59;;;;;;;45.27;3.10;;;6.20;99.90;;;;;;5014035;28;20431;-71
2023/01/31 11:36:31;;;;;;;72.53;7.93;;;6.20;99.90;;;;;;4973796;28;20439;-71
2023/01/31 11:38:57;;;;;;;44.03;2.97;;;6.30;99.90;;;;;;5006454;28;20841;-71
2023/01/31 11:41:36;;;;;;;50.50;3.50;;;6.40;99.90;;;;;;5013481;28;20457;-71
2023/01/31 11:44:17;;;;;;;39.87;3.00;;;6.50;99.90;;;;;;4993531;28;20693;-71
2023/01/31 11:46:50;;;;;;;39.33;3.00;;;6.60;99.90;;;;;;5012319;28;20434;-71
2023/01/31 11:49:20;;;;;;;48.40;3.43;;;6.70;99.90;;;;;;5006834;28;20803;-71
2023/01/31 11:51:47;;;;;;;41.60;3.47;;;6.70;99.90;;;;;;4993395;28;20480;-71
2023/01/31 11:54:18;;;;;;;41.30;2.97;;;6.70;99.90;;;;;;4993547;28;20446;-71
2023/01/31 11:56:45;;;;;;;46.03;3.17;;;6.80;99.90;;;;;;5012391;28;20450;-71
2023/01/31 11:59:15;;;;;;;41.20;3.67;;;6.80;99.90;;;;;;4999055;28;20438;-71
2023/01/31 12:02:00;;;;;;;39.53;2.77;;;6.90;99.90;;;;;;5011870;28;20459;-72
2023/01/31 12:04:31;;;;;;;81.03;11.40;;;6.80;99.90;;;;;;5012860;28;20496;-72
2023/01/31 12:07:05;;;;;;;41.23;2.83;;;6.70;99.90;;;;;;5005750;28;20449;-71
2023/01/31 12:09:42;;;;;;;41.03;2.80;;;6.70;99.90;;;;;;5013084;28;20436;-71
2023/01/31 12:12:33;;;;;;;65.23;7.20;;;6.80;99.90;;;;;;5013124;28;20448;-71
2023/01/31 12:15:01;;;;;;;40.30;2.40;;;6.80;99.90;;;;;;4992933;28;20441;-71
2023/01/31 12:17:36;;;;;;;48.10;3.17;;;6.90;99.90;;;;;;5001298;28;21000;-71
2023/01/31 12:20:19;;;;;;;41.77;3.80;;;6.90;99.90;;;;;;4993226;28;20988;-71
2023/01/31 12:23:09;;;;;;;79.40;30.70;;;6.90;99.90;;;;;;5011395;28;20471;-71
2023/01/31 12:25:47;;;;;;;50.60;10.70;;;6.80;99.90;;;;;;5011446;28;20434;-71
2023/01/31 12:28:26;;;;;;;44.63;3.07;;;6.80;99.90;;;;;;4992974;28;20929;-71
2023/01/31 12:31:16;;;;;;;36.90;2.60;;;6.70;99.90;;;;;;5012330;28;20526;-71
2023/01/31 12:33:54;;;;;;;38.40;3.20;;;6.80;99.90;;;;;;5012543;28;20444;-70
2023/01/31 12:36:31;;;;;;;32.73;2.13;;;7.00;99.90;;;;;;5012367;28;21010;-72
2023/01/31 12:39:19;;;;;;;36.27;2.10;;;7.30;99.90;;;;;;5004821;28;20915;-72
2023/01/31 12:42:23;;;;;;;43.23;3.07;;;7.40;99.90;;;;;;5012500;28;20460;-72
2023/01/31 12:44:57;;;;;;;29.07;2.83;;;7.40;99.90;;;;;;5012121;28;20445;-71
2023/01/31 12:48:02;;;;;;;39.30;2.50;;;7.20;99.90;;;;;;5005286;28;20438;-71
2023/01/31 12:50:35;;;;;;;39.37;2.50;;;7.00;99.90;;;;;;5008597;28;20862;-71
2023/01/31 12:53:23;;;;;;;28.20;2.70;;;6.70;99.90;;;;;;5000180;28;20425;-71
2023/01/31 12:56:08;;;;;;;31.63;3.40;;;6.50;99.90;;;;;;5011385;28;20480;-72
2023/01/31 12:58:43;;;;;;;18.77;1.80;;;6.40;99.90;;;;;;5003829;28;20958;-70
2023/01/31 13:01:18;;;;;;;22.30;2.20;;;6.40;99.90;;;;;;4997696;28;20439;-71
2023/01/31 13:04:04;;;;;;;17.70;2.30;;;6.30;99.90;;;;;;5002348;28;20551;-71
2023/01/31 13:06:38;;;;;;;18.70;2.20;;;6.20;99.90;;;;;;4975350;28;21015;-71
2023/01/31 13:09:17;;;;;;;16.17;2.20;;;6.20;99.90;;;;;;5005342;28;20430;-71
2023/01/31 13:12:04;;;;;;;16.27;2.10;;;6.10;99.90;;;;;;5003064;28;20811;-71
2023/01/31 13:14:35;;;;;;;22.70;2.60;;;6.00;99.90;;;;;;4990774;28;20450;-71
2023/01/31 13:17:04;;;;;;;21.27;2.57;;;6.10;99.90;;;;;;5004640;28;20790;-71
2023/01/31 13:19:40;;;;;;;13.73;2.20;;;6.00;99.90;;;;;;5011885;28;20433;-70
2023/01/31 13:22:24;;;;;;;25.30;3.10;;;5.90;99.90;;;;;;5005050;28;20486;-69
2023/01/31 13:25:18;;;;;;;34.60;19.73;;;5.90;99.90;;;;;;5012805;28;20426;-71
2023/01/31 13:28:11;;;;;;;22.77;3.90;;;5.90;99.90;;;;;;5011960;28;20517;-71
2023/01/31 13:31:00;;;;;;;20.30;2.27;;;6.00;99.90;;;;;;5000587;28;20527;-72
2023/01/31 13:33:33;;;;;;;56.00;11.60;;;5.90;99.90;;;;;;5011729;28;20967;-71
2023/01/31 13:36:09;;;;;;;20.33;2.70;;;5.70;99.90;;;;;;5003670;28;20437;-71
2023/01/31 13:38:43;;;;;;;16.50;2.27;;;5.60;99.90;;;;;;5011508;28;20946;-70
2023/01/31 13:41:18;;;;;;;14.00;2.00;;;5.60;99.90;;;;;;5011508;28;20589;-70
2023/01/31 13:43:43;;;;;;;20.40;2.60;;;5.50;99.90;;;;;;4993873;28;20473;-71
2023/01/31 13:46:11;;;;;;;18.33;2.20;;;5.50;99.90;;;;;;5000029;28;20439;-71
2023/01/31 13:48:48;;;;;;;16.13;2.57;;;5.50;99.90;;;;;;5008770;28;20189;-70
2023/01/31 13:51:21;;;;;;;16.80;2.73;;;5.50;99.90;;;;;;5011496;28;20449;-71
2023/01/31 13:53:57;;;;;;;9.67;2.00;;;5.50;99.90;;;;;;5011460;28;20443;-71
2023/01/31 13:56:34;;;;;;;15.30;2.10;;;5.50;99.90;;;;;;4996713;28;20436;-71
2023/01/31 13:59:01;;;;;;;19.30;2.53;;;5.60;99.90;;;;;;5003768;28;20458;-72
2023/01/31 14:01:31;;;;;;;17.40;2.40;;;5.70;99.90;;;;;;5011358;28;20531;-71
2023/01/31 14:04:14;;;;;;;15.60;2.40;;;5.80;99.90;;;;;;5011111;28;20531;-70
2023/01/31 14:07:09;;;;;;;9.03;2.33;;;5.80;99.90;;;;;;4994521;28;20430;-71
2023/01/31 14:10:04;;;;;;;54.37;16.47;;;5.70;99.90;;;;;;4997124;28;20440;-71
2023/01/31 14:12:32;;;;;;;17.83;1.97;;;5.80;99.90;;;;;;5007259;28;20515;-72
2023/01/31 14:14:58;;;;;;;14.50;1.80;;;5.80;99.90;;;;;;4993975;28;21030;-71
2023/01/31 14:17:27;;;;;;;10.17;2.20;;;5.80;99.90;;;;;;5010923;28;20427;-72
2023/01/31 14:19:54;;;;;;;19.90;2.97;;;5.80;99.90;;;;;;4997502;28;20343;-72
2023/01/31 14:22:24;;;;;;;38.63;2.93;;;5.80;99.90;;;;;;5014756;28;20454;-71
2023/01/31 14:24:55;;;;;;;15.57;2.67;;;5.80;99.90;;;;;;4996941;28;20759;-71
2023/01/31 14:27:59;;;;;;;12.90;2.50;;;5.80;99.90;;;;;;5002779;28;20485;-71
2023/01/31 14:30:42;;;;;;;16.60;2.57;;;5.80;99.90;;;;;;4995224;28;20426;-71
2023/01/31 14:33:17;;;;;;;30.67;16.60;;;5.90;99.90;;;;;;4995040;28;20472;-71
2023/01/31 14:36:31;;;;;;;13.47;2.33;;;5.90;99.90;;;;;;5011873;28;20433;-71
2023/01/31 14:39:08;;;;;;;15.43;2.43;;;5.90;99.90;;;;;;4918622;29;20449;-70